createdAt,value
2022-09-03T00:00:11.709Z,1.40
2022-09-03T00:02:42.784Z,1.40
2022-09-03T00:05:13.236Z,1.40
2022-09-03T00:07:47.119Z,1.50
2022-09-03T00:10:16.967Z,1.60
2022-09-03T00:12:45.543Z,1.70
2022-09-03T00:15:14.949Z,1.50
2022-09-03T00:17:45.391Z,1.60
2022-09-03T00:20:14.268Z,1.42
2022-09-03T00:22:45.445Z,1.30
2022-09-03T00:25:14.485Z,1.52
2022-09-03T00:27:44.316Z,1.70
2022-09-03T00:30:17.151Z,1.25
2022-09-03T00:32:47.736Z,1.70
2022-09-03T00:35:17.938Z,1.48
2022-09-03T00:37:46.963Z,1.60
2022-09-03T00:40:19.390Z,1.40
2022-09-03T00:42:52.795Z,1.50
2022-09-03T00:45:25.414Z,1.67
2022-09-03T00:48:03.764Z,1.50
2022-09-03T00:50:38.283Z,1.52
2022-09-03T00:53:13.352Z,1.60
2022-09-03T00:55:47.498Z,1.60
2022-09-03T00:58:22.578Z,1.80
2022-09-03T01:00:52.791Z,1.70
2022-09-03T01:03:25.199Z,1.70
2022-09-03T01:06:03.437Z,1.75
2022-09-03T01:08:39.130Z,1.70
2022-09-03T01:11:12.549Z,1.60
2022-09-03T01:13:41.982Z,1.50
2022-09-03T01:16:13.291Z,1.60
2022-09-03T01:18:45.622Z,1.55
2022-09-03T01:21:24.189Z,1.30
2022-09-03T01:24:07.271Z,1.60
2022-09-03T01:26:49.815Z,1.60
2022-09-03T01:29:22.852Z,1.67
2022-09-03T01:31:54.554Z,1.35
2022-09-03T01:34:25.146Z,1.35
2022-09-03T01:36:57.488Z,1.40
2022-09-03T01:39:30.700Z,1.50
2022-09-03T01:42:20.330Z,1.55
2022-09-03T01:45:06.381Z,1.40
2022-09-03T01:47:41.100Z,1.60
2022-09-03T01:50:11.885Z,1.30
2022-09-03T01:52:44.780Z,1.63
2022-09-03T01:55:19.966Z,1.42
2022-09-03T01:57:50.099Z,1.95
2022-09-03T02:00:20.457Z,1.60
2022-09-03T02:02:51.111Z,1.35
2022-09-03T02:05:23.271Z,1.48
2022-09-03T02:07:52.920Z,1.40
2022-09-03T02:10:22.125Z,1.60
2022-09-03T02:12:52.201Z,1.58
2022-09-03T02:15:21.533Z,1.27
2022-09-03T02:17:53.999Z,1.83
2022-09-03T02:20:23.036Z,1.40
2022-09-03T02:22:50.895Z,1.50
2022-09-03T02:25:19.295Z,1.70
2022-09-03T02:27:47.115Z,1.40
2022-09-03T02:30:14.831Z,1.50
2022-09-03T02:32:42.515Z,1.52
2022-09-03T02:35:12.793Z,1.65
2022-09-03T02:37:41.803Z,1.40
2022-09-03T02:40:10.910Z,1.58
2022-09-03T02:42:39.248Z,1.40
2022-09-03T02:45:13.053Z,1.80
2022-09-03T02:47:41.828Z,1.60
2022-09-03T02:50:11.515Z,1.35
2022-09-03T02:52:39.084Z,1.63
2022-09-03T02:55:08.184Z,1.50
2022-09-03T02:57:35.815Z,1.52
2022-09-03T03:00:03.890Z,1.60
2022-09-03T03:02:31.641Z,1.60
2022-09-03T03:04:59.305Z,1.50
2022-09-03T03:07:28.989Z,1.50
2022-09-03T03:09:56.676Z,1.60
2022-09-03T03:12:25.157Z,1.38
2022-09-03T03:14:52.779Z,1.50
2022-09-03T03:17:20.739Z,1.33
2022-09-03T03:19:49.119Z,1.50
2022-09-03T03:22:16.818Z,1.40
2022-09-03T03:24:45.703Z,1.60
2022-09-03T03:27:14.855Z,1.50
2022-09-03T03:29:42.553Z,1.40
2022-09-03T03:32:10.175Z,1.50
2022-09-03T03:34:38.424Z,1.60
2022-09-03T03:37:06.011Z,1.50
2022-09-03T03:39:33.658Z,1.60
2022-09-03T03:42:02.712Z,1.45
2022-09-03T03:44:30.672Z,1.58
2022-09-03T03:46:58.226Z,1.48
2022-09-03T03:49:25.905Z,1.70
2022-09-03T03:51:53.460Z,1.80
2022-09-03T03:54:21.509Z,1.75
2022-09-03T03:56:55.707Z,1.65
2022-09-03T03:59:26.883Z,2.00
2022-09-03T04:01:55.485Z,2.00
2022-09-03T04:04:23.150Z,2.03
2022-09-03T04:06:50.795Z,2.03
2022-09-03T04:09:18.512Z,2.30
2022-09-03T04:11:46.142Z,2.50
2022-09-03T04:14:13.719Z,2.50
2022-09-03T04:16:43.253Z,2.28
2022-09-03T04:19:11.259Z,2.40
2022-09-03T04:21:39.218Z,2.30
2022-09-03T04:24:07.504Z,2.20
2022-09-03T04:26:35.035Z,2.13
2022-09-03T04:29:04.404Z,2.42
2022-09-03T04:31:32.979Z,1.95
2022-09-03T04:34:02.096Z,2.13
2022-09-03T04:36:30.843Z,1.90
2022-09-03T04:38:59.861Z,1.65
2022-09-03T04:41:29.579Z,1.70
2022-09-03T04:43:57.837Z,1.77
2022-09-03T04:46:31.881Z,1.60
2022-09-03T04:48:59.881Z,1.85
2022-09-03T04:51:30.202Z,1.60
2022-09-03T04:54:00.168Z,1.80
2022-09-03T04:56:28.682Z,1.45
2022-09-03T04:58:57.083Z,1.88
2022-09-03T05:01:25.902Z,1.42
2022-09-03T05:03:54.728Z,1.60
2022-09-03T05:06:22.308Z,1.50
2022-09-03T05:08:51.910Z,1.52
2022-09-03T05:11:19.751Z,1.50
2022-09-03T05:13:48.601Z,1.40
2022-09-03T05:16:16.498Z,1.60
2022-09-03T05:18:45.007Z,1.40
2022-09-03T05:21:13.254Z,1.40
2022-09-03T05:23:42.541Z,1.40
2022-09-03T05:26:12.493Z,1.60
2022-09-03T05:28:41.116Z,1.60
2022-09-03T05:31:09.699Z,1.33
2022-09-03T05:33:38.197Z,1.50
2022-09-03T05:36:06.987Z,1.50
2022-09-03T05:38:35.033Z,1.42
2022-09-03T05:41:02.968Z,1.50
2022-09-03T05:43:32.944Z,1.33
2022-09-03T05:46:01.215Z,1.48
2022-09-03T05:48:30.084Z,1.38
2022-09-03T05:51:01.526Z,1.58
2022-09-03T05:53:29.115Z,1.20
2022-09-03T05:55:57.672Z,1.30
2022-09-03T05:58:25.339Z,1.55
2022-09-03T06:00:54.320Z,1.58
2022-09-03T06:03:22.285Z,1.38
2022-09-03T06:05:52.520Z,1.30
2022-09-03T06:08:20.182Z,1.40
2022-09-03T06:10:47.907Z,1.33
2022-09-03T06:13:15.734Z,1.15
2022-09-03T06:15:43.424Z,1.42
2022-09-03T06:18:12.343Z,1.10
2022-09-03T06:20:40.147Z,1.40
2022-09-03T06:23:07.724Z,1.40
2022-09-03T06:25:35.349Z,1.20
2022-09-03T06:28:04.113Z,1.30
2022-09-03T06:30:31.716Z,1.55
2022-09-03T06:32:59.283Z,1.50
2022-09-03T06:35:28.248Z,1.23
2022-09-03T06:37:57.155Z,1.40
2022-09-03T06:40:25.920Z,1.50
2022-09-03T06:42:57.952Z,1.40
2022-09-03T06:45:25.642Z,1.50
2022-09-03T06:47:54.812Z,1.42
2022-09-03T06:50:22.529Z,1.52
2022-09-03T06:52:55.004Z,1.40
2022-09-03T06:55:23.867Z,1.60
2022-09-03T06:57:54.095Z,1.40
2022-09-03T07:00:23.384Z,1.50
2022-09-03T07:02:58.987Z,1.50
2022-09-03T07:05:28.604Z,1.50
2022-09-03T07:07:58.191Z,1.50
2022-09-03T07:10:27.964Z,1.38
2022-09-03T07:12:56.191Z,1.73
2022-09-03T07:15:24.104Z,1.65
2022-09-03T07:17:51.774Z,1.60
2022-09-03T07:20:20.562Z,1.60
2022-09-03T07:22:48.282Z,1.83
2022-09-03T07:25:17.301Z,1.60
2022-09-03T07:27:44.913Z,1.70
2022-09-03T07:30:12.832Z,1.70
2022-09-03T07:32:40.902Z,1.80
2022-09-03T07:35:08.839Z,1.88
2022-09-03T07:37:36.556Z,2.00
2022-09-03T07:40:04.630Z,1.60
2022-09-03T07:42:36.056Z,1.98
2022-09-03T07:45:05.476Z,1.70
2022-09-03T07:47:34.490Z,1.60
2022-09-03T07:50:02.183Z,1.65
2022-09-03T07:52:29.846Z,1.80
2022-09-03T07:54:57.837Z,1.80
2022-09-03T07:57:25.446Z,1.70
2022-09-03T07:59:54.400Z,1.90
2022-09-03T08:02:22.057Z,1.85
2022-09-03T08:04:49.725Z,1.80
2022-09-03T08:07:17.320Z,1.85
2022-09-03T08:09:44.939Z,1.85
2022-09-03T08:12:12.805Z,1.95
2022-09-03T08:14:40.628Z,1.85
2022-09-03T08:17:12.516Z,1.80
2022-09-03T08:19:41.011Z,1.80
2022-09-03T08:22:08.685Z,1.83
2022-09-03T08:24:36.337Z,1.90
2022-09-03T08:27:04.264Z,1.95
2022-09-03T08:29:31.822Z,1.90
2022-09-03T08:31:59.781Z,1.92
2022-09-03T08:34:28.931Z,1.98
2022-09-03T08:36:56.668Z,2.10
2022-09-03T08:39:24.687Z,1.80
2022-09-03T08:42:19.000Z,1.80
2022-09-03T08:44:47.989Z,1.73
2022-09-03T08:47:18.121Z,1.98
2022-09-03T08:49:50.235Z,1.80
2022-09-03T08:52:22.702Z,1.70
2022-09-03T08:54:50.859Z,1.95
2022-09-03T08:57:20.216Z,1.60
2022-09-03T08:59:48.536Z,2.47
2022-09-03T09:02:21.246Z,1.77
2022-09-03T09:04:54.638Z,1.75
2022-09-03T09:07:28.267Z,1.90
2022-09-03T09:10:01.429Z,2.00
2022-09-03T09:12:42.817Z,2.00
2022-09-03T09:15:15.396Z,1.83
2022-09-03T09:17:51.144Z,2.17
2022-09-03T09:20:24.132Z,2.00
2022-09-03T09:22:55.707Z,1.85
2022-09-03T09:25:26.172Z,2.10
2022-09-03T09:27:57.954Z,2.05
2022-09-03T09:30:25.723Z,2.10
2022-09-03T09:32:53.944Z,1.80
2022-09-03T09:35:23.435Z,1.85
2022-09-03T09:37:51.790Z,1.92
2022-09-03T09:40:33.099Z,1.80
2022-09-03T09:43:04.681Z,2.00
2022-09-03T09:45:34.112Z,1.83
2022-09-03T09:48:02.444Z,2.00
2022-09-03T09:50:31.375Z,2.00
2022-09-03T09:53:08.440Z,1.70
2022-09-03T09:55:39.007Z,2.10
2022-09-03T09:58:13.986Z,1.90
2022-09-03T10:00:42.794Z,1.98
2022-09-03T10:03:13.596Z,1.98
2022-09-03T10:05:44.272Z,1.95
2022-09-03T10:08:20.107Z,1.83
2022-09-03T10:10:50.055Z,2.00
2022-09-03T10:13:19.337Z,2.10
2022-09-03T10:15:48.857Z,1.90
2022-09-03T10:18:26.255Z,2.22
2022-09-03T10:20:59.212Z,2.00
2022-09-03T10:23:28.361Z,2.03
2022-09-03T10:26:04.508Z,2.05
2022-09-03T10:28:33.280Z,1.80
2022-09-03T10:31:07.453Z,1.92
2022-09-03T10:33:37.007Z,2.28
2022-09-03T10:36:10.725Z,1.85
2022-09-03T10:38:38.573Z,2.10
2022-09-03T10:41:16.499Z,1.80
2022-09-03T10:43:55.586Z,2.03
2022-09-03T10:46:27.368Z,2.00
2022-09-03T10:49:06.027Z,2.17
2022-09-03T10:51:40.769Z,1.92
2022-09-03T10:54:22.485Z,1.90
2022-09-03T10:56:54.718Z,1.83
2022-09-03T10:59:30.205Z,2.00
2022-09-03T11:02:02.266Z,2.38
2022-09-03T11:04:32.296Z,2.08
2022-09-03T11:07:09.107Z,1.88
2022-09-03T11:09:38.673Z,2.05
2022-09-03T11:12:08.583Z,2.20
2022-09-03T11:14:38.639Z,1.70
2022-09-03T11:17:10.137Z,1.90
2022-09-03T11:19:42.120Z,1.83
2022-09-03T11:22:11.483Z,1.98
2022-09-03T11:24:41.802Z,1.60
2022-09-03T11:27:18.277Z,2.10
2022-09-03T11:29:49.759Z,2.03
2022-09-03T11:32:18.868Z,1.70
2022-09-03T11:34:48.167Z,1.73
2022-09-03T11:37:19.511Z,1.98
2022-09-03T11:39:54.272Z,1.83
2022-09-03T11:42:31.537Z,1.90
2022-09-03T11:45:01.416Z,1.80
2022-09-03T11:47:39.076Z,1.65
2022-09-03T11:50:09.037Z,2.00
2022-09-03T11:52:40.412Z,1.90
2022-09-03T11:55:08.639Z,1.95
2022-09-03T11:57:43.284Z,2.00
2022-09-03T12:00:13.135Z,1.88
2022-09-03T12:02:45.108Z,1.83
2022-09-03T12:05:20.255Z,1.83
2022-09-03T12:08:15.022Z,1.80
2022-09-03T12:10:50.480Z,1.70
2022-09-03T12:13:23.978Z,1.80
2022-09-03T12:16:12.571Z,1.80
2022-09-03T12:18:41.450Z,1.80
2022-09-03T12:21:10.572Z,2.42
2022-09-03T12:23:42.552Z,1.80
2022-09-03T12:26:14.826Z,2.00
2022-09-03T12:28:44.687Z,1.85
2022-09-03T12:31:21.511Z,1.80
2022-09-03T12:33:51.361Z,1.90
2022-09-03T12:36:19.243Z,1.90
2022-09-03T12:39:10.327Z,2.13
2022-09-03T12:41:37.715Z,1.70
2022-09-03T12:44:06.156Z,1.73
2022-09-03T12:46:34.981Z,2.00
2022-09-03T12:51:56.938Z,1.80
2022-09-03T12:54:26.998Z,1.58
2022-09-03T12:56:57.621Z,3.05
2022-09-03T12:59:27.143Z,2.13
2022-09-03T13:01:56.667Z,1.95
2022-09-03T13:04:26.738Z,2.15
2022-09-03T13:06:57.407Z,2.15
2022-09-03T13:09:26.433Z,2.08
2022-09-03T13:11:55.390Z,1.80
2022-09-03T13:14:27.506Z,2.13
2022-09-03T13:17:09.970Z,2.00
2022-09-03T13:19:42.361Z,1.80
2022-09-03T13:22:13.422Z,2.00
2022-09-03T13:24:54.111Z,1.70
2022-09-03T13:27:27.316Z,1.70
2022-09-03T13:30:03.206Z,2.00
2022-09-03T13:32:35.760Z,2.08
2022-09-03T13:35:07.024Z,2.03
2022-09-03T13:37:36.786Z,1.60
2022-09-03T13:40:10.967Z,1.70
2022-09-03T13:42:40.274Z,2.00
2022-09-03T13:45:15.623Z,1.60
2022-09-03T13:48:05.191Z,1.75
2022-09-03T13:50:35.309Z,1.60
2022-09-03T13:53:06.269Z,1.50
2022-09-03T13:55:36.778Z,1.80
2022-09-03T13:58:06.893Z,1.70
2022-09-03T14:00:39.536Z,1.55
2022-09-03T14:03:12.011Z,1.75
2022-09-03T14:05:45.845Z,1.60
2022-09-03T14:08:19.188Z,1.80
2022-09-03T14:10:53.803Z,1.92
2022-09-03T14:13:25.721Z,1.70
2022-09-03T14:15:58.724Z,2.10
2022-09-03T14:18:36.480Z,1.98
2022-09-03T14:21:06.280Z,1.83
2022-09-03T14:23:36.839Z,1.90
2022-09-03T14:26:06.408Z,1.88
2022-09-03T14:28:36.807Z,1.80
2022-09-03T14:31:13.096Z,1.75
2022-09-03T14:33:44.928Z,1.80
2022-09-03T14:36:15.582Z,1.80
2022-09-03T14:38:51.565Z,1.70
2022-09-03T14:41:27.484Z,1.92
2022-09-03T14:44:09.419Z,2.00
2022-09-03T14:46:47.706Z,1.90
2022-09-03T14:49:35.109Z,2.10
2022-09-03T14:52:09.624Z,1.90
2022-09-03T14:54:51.339Z,1.92
2022-09-03T14:57:26.370Z,2.05
2022-09-03T15:00:03.724Z,1.90
2022-09-03T15:02:48.838Z,2.20
2022-09-03T15:05:23.081Z,1.80
2022-09-03T15:07:52.180Z,1.90
2022-09-03T15:10:25.437Z,1.83
2022-09-03T15:12:53.824Z,2.10
2022-09-03T15:15:23.280Z,1.70
2022-09-03T15:18:03.501Z,1.80
2022-09-03T15:20:35.566Z,2.13
2022-09-03T15:23:06.728Z,2.63
2022-09-03T15:25:39.651Z,2.00
2022-09-03T15:28:12.351Z,2.00
2022-09-03T15:30:43.231Z,2.03
2022-09-03T15:33:22.131Z,1.90
2022-09-03T15:35:58.329Z,2.35
2022-09-03T15:38:28.772Z,2.00
2022-09-03T15:40:58.105Z,2.10
2022-09-03T15:43:27.917Z,1.90
2022-09-03T15:45:59.124Z,2.00
2022-09-03T15:48:33.891Z,1.77
2022-09-03T15:51:10.469Z,2.00
2022-09-03T15:53:40.550Z,1.70
2022-09-03T15:56:13.926Z,1.73
2022-09-03T15:58:44.228Z,2.00
2022-09-03T16:01:14.259Z,2.40
2022-09-03T16:03:48.148Z,2.00
2022-09-03T16:06:21.693Z,1.90
2022-09-03T16:08:51.212Z,2.10
2022-09-03T16:11:22.804Z,2.15
2022-09-03T16:13:59.636Z,1.90
2022-09-03T16:16:30.518Z,1.90
2022-09-03T16:19:06.569Z,1.65
2022-09-03T16:21:38.593Z,2.00
2022-09-03T16:24:10.723Z,2.03
2022-09-03T16:26:41.169Z,2.40
2022-09-03T16:29:09.718Z,3.80
2022-09-03T16:31:43.208Z,3.78
2022-09-03T16:34:18.818Z,2.33
2022-09-03T16:36:50.204Z,2.90
2022-09-03T16:39:26.061Z,2.40
2022-09-03T16:41:59.857Z,1.70
2022-09-03T16:44:33.258Z,1.90
2022-09-03T16:47:04.939Z,1.90
2022-09-03T16:49:40.022Z,1.95
2022-09-03T16:52:13.530Z,1.85
2022-09-03T16:54:57.143Z,1.88
2022-09-03T16:57:33.240Z,2.10
2022-09-03T17:00:03.817Z,1.80
2022-09-03T17:02:52.462Z,1.88
2022-09-03T17:05:38.090Z,1.90
2022-09-03T17:08:20.811Z,2.22
2022-09-03T17:10:50.632Z,2.10
2022-09-03T17:13:25.886Z,3.05
2022-09-03T17:15:54.883Z,2.28
2022-09-03T17:18:34.000Z,2.30
2022-09-03T17:21:13.360Z,3.53
2022-09-03T17:23:55.075Z,2.50
2022-09-03T17:26:29.177Z,2.13
2022-09-03T17:29:01.114Z,2.40
2022-09-03T17:31:31.467Z,1.92
2022-09-03T17:34:05.925Z,2.35
2022-09-03T17:36:37.533Z,2.20
2022-09-03T17:39:20.088Z,1.95
2022-09-03T17:41:53.120Z,2.35
2022-09-03T17:44:27.208Z,2.40
2022-09-03T17:47:02.746Z,2.20
2022-09-03T17:49:31.430Z,2.28
2022-09-03T17:52:02.985Z,2.20
2022-09-03T17:54:36.688Z,2.40
2022-09-03T17:57:13.052Z,2.50
2022-09-03T17:59:46.123Z,3.00
2022-09-03T18:02:23.247Z,2.55
2022-09-03T18:04:54.840Z,2.63
2022-09-03T18:07:25.294Z,2.50
2022-09-03T18:09:57.031Z,2.58
2022-09-03T18:12:34.363Z,2.35
2022-09-03T18:15:06.492Z,2.33
2022-09-03T18:17:35.969Z,2.60
2022-09-03T18:20:23.767Z,2.60
2022-09-03T18:23:11.692Z,2.20
2022-09-03T18:25:59.389Z,2.55
2022-09-03T18:28:50.285Z,2.47
2022-09-03T18:31:35.743Z,2.65
2022-09-03T18:34:22.051Z,2.55
2022-09-03T18:37:07.169Z,2.30
2022-09-03T18:39:52.486Z,2.20
2022-09-03T18:42:41.244Z,2.33
2022-09-03T18:45:56.289Z,2.60
2022-09-03T18:48:41.656Z,2.92
2022-09-03T18:51:31.482Z,2.35
2022-09-03T18:54:23.326Z,2.85
2022-09-03T18:57:10.257Z,2.60
2022-09-03T19:00:13.664Z,2.67
2022-09-03T19:03:06.151Z,3.72
2022-09-03T19:05:54.587Z,2.50
2022-09-03T19:08:42.473Z,2.60
2022-09-03T19:11:35.751Z,2.35
2022-09-03T19:14:24.425Z,2.65
2022-09-03T19:17:20.945Z,2.40
2022-09-03T19:20:13.614Z,2.60
2022-09-03T19:22:59.402Z,2.60
2022-09-03T19:25:45.376Z,2.75
2022-09-03T19:28:35.937Z,2.70
2022-09-03T19:31:36.918Z,2.58
2022-09-03T19:34:26.555Z,2.67
2022-09-03T19:37:19.151Z,2.85
2022-09-03T19:40:13.504Z,2.95
2022-09-03T19:43:05.109Z,2.10
2022-09-03T19:45:55.156Z,2.33
2022-09-03T19:48:46.956Z,2.28
2022-09-03T19:51:34.919Z,2.17
2022-09-03T19:54:22.576Z,2.42
2022-09-03T19:57:09.075Z,2.80
2022-09-03T19:59:56.148Z,2.30
2022-09-03T20:02:42.131Z,2.10
2022-09-03T20:05:30.585Z,2.17
2022-09-03T20:08:16.166Z,1.98
2022-09-03T20:10:48.052Z,2.35
2022-09-03T20:13:17.268Z,2.25
2022-09-03T20:15:48.890Z,2.17
2022-09-03T20:18:20.229Z,2.13
2022-09-03T20:20:52.155Z,2.15
2022-09-03T20:23:21.434Z,2.33
2022-09-03T20:26:07.278Z,2.30
2022-09-03T20:28:46.839Z,2.03
2022-09-03T20:31:18.658Z,3.35
2022-09-03T20:33:52.201Z,2.97
2022-09-03T20:36:27.017Z,2.30
2022-09-03T20:39:04.756Z,2.20
2022-09-03T20:41:36.148Z,1.85
2022-09-03T20:44:20.406Z,2.10
2022-09-03T20:46:54.936Z,1.83
2022-09-03T20:49:30.773Z,1.90
2022-09-03T20:52:06.381Z,1.70
2022-09-03T20:54:36.180Z,1.80
2022-09-03T20:57:18.540Z,2.70
2022-09-03T20:59:59.247Z,2.05
2022-09-03T21:02:30.461Z,1.70
2022-09-03T21:05:06.184Z,1.88
2022-09-03T21:07:40.175Z,1.80
2022-09-03T21:10:11.479Z,1.60
2022-09-03T21:12:43.655Z,1.70
2022-09-03T21:15:16.971Z,1.60
2022-09-03T21:17:51.771Z,1.60
2022-09-03T21:20:25.772Z,1.88
2022-09-03T21:23:01.429Z,1.60
2022-09-03T21:25:32.531Z,1.80
2022-09-03T21:28:02.442Z,1.55
2022-09-03T21:30:32.564Z,1.60
2022-09-03T21:33:03.595Z,1.40
2022-09-03T21:35:33.768Z,1.67
2022-09-03T21:38:04.092Z,1.60
2022-09-03T21:40:32.830Z,1.50
2022-09-03T21:43:05.312Z,1.58
2022-09-03T21:45:36.059Z,1.60
2022-09-03T21:48:06.295Z,1.50
2022-09-03T21:50:41.837Z,1.50
2022-09-03T21:53:12.624Z,1.63
2022-09-03T21:55:46.922Z,1.90
2022-09-03T21:58:18.956Z,1.50
2022-09-03T22:00:49.366Z,1.60
2022-09-03T22:03:16.912Z,1.50
2022-09-03T22:05:47.550Z,1.30
2022-09-03T22:08:18.937Z,1.50
2022-09-03T22:10:51.500Z,1.30
2022-09-03T22:13:24.389Z,1.60
2022-09-03T22:15:56.063Z,1.50
2022-09-03T22:18:28.748Z,1.30
2022-09-03T22:21:01.150Z,1.52
2022-09-03T22:23:34.345Z,2.42
2022-09-03T22:26:07.368Z,1.70
2022-09-03T22:28:40.159Z,1.70
2022-09-03T22:31:14.636Z,2.28
2022-09-03T22:33:48.348Z,1.60
2022-09-03T22:36:17.282Z,1.80
2022-09-03T22:38:51.636Z,1.90
2022-09-03T22:41:25.829Z,1.80
2022-09-03T22:44:01.193Z,1.88
2022-09-03T22:46:34.777Z,2.30
2022-09-03T22:49:09.433Z,2.80
2022-09-03T22:51:43.291Z,3.85
2022-09-03T22:54:18.614Z,2.35
2022-09-03T22:56:46.262Z,2.40
2022-09-03T22:59:16.594Z,2.60
2022-09-03T23:01:48.939Z,2.38
2022-09-03T23:04:20.801Z,2.78
2022-09-03T23:06:50.975Z,2.40
2022-09-03T23:09:20.907Z,2.70
2022-09-03T23:11:50.331Z,2.60
2022-09-03T23:14:20.776Z,2.63
2022-09-03T23:16:52.838Z,2.70
2022-09-03T23:21:52.034Z,3.65
2022-09-03T23:24:24.279Z,2.60
2022-09-03T23:26:53.730Z,2.60
2022-09-03T23:29:26.026Z,2.83
2022-09-03T23:31:56.910Z,2.80
2022-09-03T23:34:24.933Z,2.55
2022-09-03T23:37:16.427Z,2.60
2022-09-03T23:39:55.855Z,2.53
2022-09-03T23:42:29.647Z,2.70
2022-09-03T23:45:04.195Z,2.30
2022-09-03T23:47:44.079Z,2.70
2022-09-03T23:50:19.640Z,2.70
2022-09-03T23:53:00.208Z,2.60
2022-09-03T23:55:33.267Z,2.47
2022-09-03T23:58:07.984Z,2.17
